sensor_id;sensor_type;location;lat;lon;timestamp;temperature;humidity
35127;DHT22;21300;52.006;5.798;2024-02-26T00:00:32;4.10;99.90
35127;DHT22;21300;52.006;5.798;2024-02-26T00:03:00;4.10;99.90
35127;DHT22;21300;52.006;5.798;2024-02-26T00:05:26;4.10;99.90
35127;DHT22;21300;52.006;5.798;2024-02-26T00:07:51;4.10;99.90
35127;DHT22;21300;52.006;5.798;2024-02-26T00:10:17;4.10;99.90
35127;DHT22;21300;52.006;5.798;2024-02-26T00:12:43;4.10;99.90
35127;DHT22;21300;52.006;5.798;2024-02-26T00:15:09;4.00;99.90
35127;DHT22;21300;52.006;5.798;2024-02-26T00:17:35;4.10;99.90
35127;DHT22;21300;52.006;5.798;2024-02-26T00:20:02;4.10;99.90
35127;DHT22;21300;52.006;5.798;2024-02-26T00:22:30;4.10;99.90
35127;DHT22;21300;52.006;5.798;2024-02-26T00:24:55;4.00;99.90
35127;DHT22;21300;52.006;5.798;2024-02-26T00:27:21;4.00;99.90
35127;DHT22;21300;52.006;5.798;2024-02-26T00:29:47;4.10;99.90
35127;DHT22;21300;52.006;5.798;2024-02-26T00:32:12;4.10;99.90
35127;DHT22;21300;52.006;5.798;2024-02-26T00:34:38;4.10;99.90
35127;DHT22;21300;52.006;5.798;2024-02-26T00:37:04;4.10;99.90
35127;DHT22;21300;52.006;5.798;2024-02-26T00:39:29;4.10;99.90
35127;DHT22;21300;52.006;5.798;2024-02-26T00:41:55;4.10;99.90
35127;DHT22;21300;52.006;5.798;2024-02-26T00:44:21;4.10;99.90
35127;DHT22;21300;52.006;5.798;2024-02-26T00:46:46;4.10;99.90
35127;DHT22;21300;52.006;5.798;2024-02-26T00:49:12;4.10;99.90
35127;DHT22;21300;52.006;5.798;2024-02-26T00:51:37;4.10;99.90
35127;DHT22;21300;52.006;5.798;2024-02-26T00:54:03;4.10;99.90
35127;DHT22;21300;52.006;5.798;2024-02-26T00:56:29;4.10;99.90
35127;DHT22;21300;52.006;5.798;2024-02-26T00:58:54;4.10;99.90
35127;DHT22;21300;52.006;5.798;2024-02-26T01:01:20;4.10;99.90
35127;DHT22;21300;52.006;5.798;2024-02-26T01:03:46;4.10;99.90
35127;DHT22;21300;52.006;5.798;2024-02-26T01:06:11;4.10;99.90
35127;DHT22;21300;52.006;5.798;2024-02-26T01:08:37;4.10;99.90
35127;DHT22;21300;52.006;5.798;2024-02-26T01:11:03;4.10;99.90
35127;DHT22;21300;52.006;5.798;2024-02-26T01:13:29;4.10;99.90
35127;DHT22;21300;52.006;5.798;2024-02-26T01:15:54;4.20;99.90
35127;DHT22;21300;52.006;5.798;2024-02-26T01:18:20;4.10;99.90
35127;DHT22;21300;52.006;5.798;2024-02-26T01:20:46;4.20;99.90
35127;DHT22;21300;52.006;5.798;2024-02-26T01:23:12;4.20;99.90
35127;DHT22;21300;52.006;5.798;2024-02-26T01:25:38;4.20;99.90
35127;DHT22;21300;52.006;5.798;2024-02-26T01:28:05;4.20;99.90
35127;DHT22;21300;52.006;5.798;2024-02-26T01:30:31;4.20;99.90
35127;DHT22;21300;52.006;5.798;2024-02-26T01:32:57;4.30;99.90
35127;DHT22;21300;52.006;5.798;2024-02-26T01:35:22;4.30;99.90
35127;DHT22;21300;52.006;5.798;2024-02-26T01:37:48;4.30;99.90
35127;DHT22;21300;52.006;5.798;2024-02-26T01:40:14;4.30;99.90
35127;DHT22;21300;52.006;5.798;2024-02-26T01:42:45;4.30;99.90
35127;DHT22;21300;52.006;5.798;2024-02-26T01:45:15;4.30;99.90
35127;DHT22;21300;52.006;5.798;2024-02-26T01:47:48;4.30;99.90
35127;DHT22;21300;52.006;5.798;2024-02-26T01:50:15;4.30;99.90
35127;DHT22;21300;52.006;5.798;2024-02-26T01:52:40;4.30;99.90
35127;DHT22;21300;52.006;5.798;2024-02-26T01:55:07;4.40;99.90
35127;DHT22;21300;52.006;5.798;2024-02-26T01:57:33;4.30;99.90
35127;DHT22;21300;52.006;5.798;2024-02-26T01:59:59;4.40;99.90
35127;DHT22;21300;52.006;5.798;2024-02-26T02:02:25;4.40;99.90
35127;DHT22;21300;52.006;5.798;2024-02-26T02:04:51;4.30;99.90
35127;DHT22;21300;52.006;5.798;2024-02-26T02:07:18;4.40;99.90
35127;DHT22;21300;52.006;5.798;2024-02-26T02:09:44;4.40;99.90
35127;DHT22;21300;52.006;5.798;2024-02-26T02:12:11;4.40;99.90
35127;DHT22;21300;52.006;5.798;2024-02-26T02:14:36;4.40;99.90
35127;DHT22;21300;52.006;5.798;2024-02-26T02:17:02;4.40;99.90
35127;DHT22;21300;52.006;5.798;2024-02-26T02:19:28;4.40;99.90
35127;DHT22;21300;52.006;5.798;2024-02-26T02:21:53;4.40;99.90
35127;DHT22;21300;52.006;5.798;2024-02-26T02:24:19;4.40;99.90
35127;DHT22;21300;52.006;5.798;2024-02-26T02:26:45;4.40;99.90
35127;DHT22;21300;52.006;5.798;2024-02-26T02:29:11;4.40;99.90
35127;DHT22;21300;52.006;5.798;2024-02-26T02:31:37;4.40;99.90
35127;DHT22;21300;52.006;5.798;2024-02-26T02:34:03;4.40;99.90
35127;DHT22;21300;52.006;5.798;2024-02-26T02:36:29;4.40;99.90
35127;DHT22;21300;52.006;5.798;2024-02-26T02:38:54;4.40;99.90
35127;DHT22;21300;52.006;5.798;2024-02-26T02:41:20;4.40;99.90
35127;DHT22;21300;52.006;5.798;2024-02-26T02:43:46;4.40;99.90
35127;DHT22;21300;52.006;5.798;2024-02-26T02:46:11;4.40;99.90
35127;DHT22;21300;52.006;5.798;2024-02-26T02:48:38;4.40;99.90
35127;DHT22;21300;52.006;5.798;2024-02-26T02:51:04;4.40;99.90
35127;DHT22;21300;52.006;5.798;2024-02-26T02:53:30;4.40;99.90
35127;DHT22;21300;52.006;5.798;2024-02-26T02:55:56;4.40;99.90
35127;DHT22;21300;52.006;5.798;2024-02-26T02:58:21;4.40;99.90
35127;DHT22;21300;52.006;5.798;2024-02-26T03:00:47;4.40;99.90
35127;DHT22;21300;52.006;5.798;2024-02-26T03:03:12;4.40;99.90
35127;DHT22;21300;52.006;5.798;2024-02-26T03:05:38;4.40;99.90
35127;DHT22;21300;52.006;5.798;2024-02-26T03:08:04;4.40;99.90
35127;DHT22;21300;52.006;5.798;2024-02-26T03:10:29;4.40;99.90
35127;DHT22;21300;52.006;5.798;2024-02-26T03:12:55;4.40;99.90
35127;DHT22;21300;52.006;5.798;2024-02-26T03:15:21;4.40;99.90
35127;DHT22;21300;52.006;5.798;2024-02-26T03:17:47;4.40;99.90
35127;DHT22;21300;52.006;5.798;2024-02-26T03:20:13;4.40;99.90
35127;DHT22;21300;52.006;5.798;2024-02-26T03:22:40;4.40;99.90
35127;DHT22;21300;52.006;5.798;2024-02-26T03:25:06;4.40;99.90
35127;DHT22;21300;52.006;5.798;2024-02-26T03:27:32;4.40;99.90
35127;DHT22;21300;52.006;5.798;2024-02-26T03:29:58;4.40;99.90
35127;DHT22;21300;52.006;5.798;2024-02-26T03:32:23;4.40;99.90
35127;DHT22;21300;52.006;5.798;2024-02-26T03:34:49;4.40;99.90
35127;DHT22;21300;52.006;5.798;2024-02-26T03:37:15;4.40;99.90
35127;DHT22;21300;52.006;5.798;2024-02-26T03:39:40;4.40;99.90
35127;DHT22;21300;52.006;5.798;2024-02-26T03:42:06;4.40;99.90
35127;DHT22;21300;52.006;5.798;2024-02-26T03:44:32;4.40;99.90
35127;DHT22;21300;52.006;5.798;2024-02-26T03:46:57;4.50;99.90
35127;DHT22;21300;52.006;5.798;2024-02-26T03:49:23;4.50;99.90
35127;DHT22;21300;52.006;5.798;2024-02-26T03:51:49;4.50;99.90
35127;DHT22;21300;52.006;5.798;2024-02-26T03:54:14;4.50;99.90
35127;DHT22;21300;52.006;5.798;2024-02-26T03:56:40;4.40;99.90
35127;DHT22;21300;52.006;5.798;2024-02-26T03:59:05;4.40;99.90
35127;DHT22;21300;52.006;5.798;2024-02-26T04:01:31;4.40;99.90
35127;DHT22;21300;52.006;5.798;2024-02-26T04:03:57;4.40;99.90
35127;DHT22;21300;52.006;5.798;2024-02-26T04:06:22;4.40;99.90
35127;DHT22;21300;52.006;5.798;2024-02-26T04:08:48;4.40;99.90
35127;DHT22;21300;52.006;5.798;2024-02-26T04:11:14;4.40;99.90
35127;DHT22;21300;52.006;5.798;2024-02-26T04:13:43;4.40;99.90
35127;DHT22;21300;52.006;5.798;2024-02-26T04:16:11;4.40;99.90
35127;DHT22;21300;52.006;5.798;2024-02-26T04:18:37;4.40;99.90
35127;DHT22;21300;52.006;5.798;2024-02-26T04:21:04;4.40;99.90
35127;DHT22;21300;52.006;5.798;2024-02-26T04:23:30;4.40;99.90
35127;DHT22;21300;52.006;5.798;2024-02-26T04:25:56;4.40;99.90
35127;DHT22;21300;52.006;5.798;2024-02-26T04:28:22;4.40;99.90
35127;DHT22;21300;52.006;5.798;2024-02-26T04:30:50;4.40;99.90
35127;DHT22;21300;52.006;5.798;2024-02-26T04:33:16;4.30;99.90
35127;DHT22;21300;52.006;5.798;2024-02-26T04:35:42;4.40;99.90
35127;DHT22;21300;52.006;5.798;2024-02-26T04:38:08;4.30;99.90
35127;DHT22;21300;52.006;5.798;2024-02-26T04:40:34;4.30;99.90
35127;DHT22;21300;52.006;5.798;2024-02-26T04:42:59;4.30;99.90
35127;DHT22;21300;52.006;5.798;2024-02-26T04:45:25;4.30;99.90
35127;DHT22;21300;52.006;5.798;2024-02-26T04:47:51;4.30;99.90
35127;DHT22;21300;52.006;5.798;2024-02-26T04:50:16;4.30;99.90
35127;DHT22;21300;52.006;5.798;2024-02-26T04:52:42;4.30;99.90
35127;DHT22;21300;52.006;5.798;2024-02-26T04:55:08;4.30;99.90
35127;DHT22;21300;52.006;5.798;2024-02-26T04:57:33;4.30;99.90
35127;DHT22;21300;52.006;5.798;2024-02-26T04:59:59;4.30;99.90
35127;DHT22;21300;52.006;5.798;2024-02-26T05:02:25;4.30;99.90
35127;DHT22;21300;52.006;5.798;2024-02-26T05:04:50;4.30;99.90
35127;DHT22;21300;52.006;5.798;2024-02-26T05:07:16;4.30;99.90
35127;DHT22;21300;52.006;5.798;2024-02-26T05:09:44;4.30;99.90
35127;DHT22;21300;52.006;5.798;2024-02-26T05:12:10;4.30;99.90
35127;DHT22;21300;52.006;5.798;2024-02-26T05:14:36;4.20;99.90
35127;DHT22;21300;52.006;5.798;2024-02-26T05:17:01;4.30;99.90
35127;DHT22;21300;52.006;5.798;2024-02-26T05:19:27;4.30;99.90
35127;DHT22;21300;52.006;5.798;2024-02-26T05:21:53;4.20;99.90
35127;DHT22;21300;52.006;5.798;2024-02-26T05:24:18;4.30;99.90
35127;DHT22;21300;52.006;5.798;2024-02-26T05:26:47;4.30;99.90
35127;DHT22;21300;52.006;5.798;2024-02-26T05:29:13;4.20;99.90
35127;DHT22;21300;52.006;5.798;2024-02-26T05:31:42;4.30;99.90
35127;DHT22;21300;52.006;5.798;2024-02-26T05:34:08;4.30;99.90
35127;DHT22;21300;52.006;5.798;2024-02-26T05:36:34;4.20;99.90
35127;DHT22;21300;52.006;5.798;2024-02-26T05:39:02;4.30;99.90
35127;DHT22;21300;52.006;5.798;2024-02-26T05:41:29;4.20;99.90
35127;DHT22;21300;52.006;5.798;2024-02-26T05:43:55;4.20;99.90
35127;DHT22;21300;52.006;5.798;2024-02-26T05:46:21;4.20;99.90
35127;DHT22;21300;52.006;5.798;2024-02-26T05:48:49;4.20;99.90
35127;DHT22;21300;52.006;5.798;2024-02-26T05:51:15;4.20;99.90
35127;DHT22;21300;52.006;5.798;2024-02-26T05:53:41;4.20;99.90
35127;DHT22;21300;52.006;5.798;2024-02-26T05:56:06;4.20;99.90
35127;DHT22;21300;52.006;5.798;2024-02-26T05:58:32;4.20;99.90
35127;DHT22;21300;52.006;5.798;2024-02-26T06:00:58;4.20;99.90
35127;DHT22;21300;52.006;5.798;2024-02-26T06:03:25;4.20;99.90
35127;DHT22;21300;52.006;5.798;2024-02-26T06:05:51;4.20;99.90
35127;DHT22;21300;52.006;5.798;2024-02-26T06:08:17;4.20;99.90
35127;DHT22;21300;52.006;5.798;2024-02-26T06:10:42;4.20;99.90
35127;DHT22;21300;52.006;5.798;2024-02-26T06:13:08;4.20;99.90
35127;DHT22;21300;52.006;5.798;2024-02-26T06:15:34;4.30;99.90
35127;DHT22;21300;52.006;5.798;2024-02-26T06:17:59;4.30;99.90
35127;DHT22;21300;52.006;5.798;2024-02-26T06:20:25;4.30;99.90
35127;DHT22;21300;52.006;5.798;2024-02-26T06:22:54;4.30;99.90
35127;DHT22;21300;52.006;5.798;2024-02-26T06:25:19;4.30;99.90
35127;DHT22;21300;52.006;5.798;2024-02-26T06:27:45;4.30;99.90
35127;DHT22;21300;52.006;5.798;2024-02-26T06:30:11;4.30;99.90
35127;DHT22;21300;52.006;5.798;2024-02-26T06:32:37;4.40;99.90
35127;DHT22;21300;52.006;5.798;2024-02-26T06:35:03;4.40;99.90
35127;DHT22;21300;52.006;5.798;2024-02-26T06:37:32;4.40;99.90
35127;DHT22;21300;52.006;5.798;2024-02-26T06:39:59;4.40;99.90
35127;DHT22;21300;52.006;5.798;2024-02-26T06:42:25;4.30;99.90
35127;DHT22;21300;52.006;5.798;2024-02-26T06:44:50;4.30;99.90
35127;DHT22;21300;52.006;5.798;2024-02-26T06:47:16;4.40;99.90
35127;DHT22;21300;52.006;5.798;2024-02-26T06:49:45;4.40;99.90
35127;DHT22;21300;52.006;5.798;2024-02-26T06:52:11;4.30;99.90
35127;DHT22;21300;52.006;5.798;2024-02-26T06:54:36;4.40;99.90
35127;DHT22;21300;52.006;5.798;2024-02-26T06:57:02;4.40;99.90
35127;DHT22;21300;52.006;5.798;2024-02-26T06:59:28;4.30;99.90
35127;DHT22;21300;52.006;5.798;2024-02-26T07:01:54;4.40;99.90
35127;DHT22;21300;52.006;5.798;2024-02-26T07:04:20;4.30;99.90
35127;DHT22;21300;52.006;5.798;2024-02-26T07:06:45;4.40;99.90
35127;DHT22;21300;52.006;5.798;2024-02-26T07:09:12;4.40;99.90
35127;DHT22;21300;52.006;5.798;2024-02-26T07:11:38;4.40;99.90
35127;DHT22;21300;52.006;5.798;2024-02-26T07:14:08;4.40;99.90
35127;DHT22;21300;52.006;5.798;2024-02-26T07:16:33;4.30;99.90
35127;DHT22;21300;52.006;5.798;2024-02-26T07:18:59;4.30;99.90
35127;DHT22;21300;52.006;5.798;2024-02-26T07:21:25;4.30;99.90
35127;DHT22;21300;52.006;5.798;2024-02-26T07:23:50;4.30;99.90
35127;DHT22;21300;52.006;5.798;2024-02-26T07:26:16;4.30;99.90
35127;DHT22;21300;52.006;5.798;2024-02-26T07:28:44;4.40;99.90
35127;DHT22;21300;52.006;5.798;2024-02-26T07:31:09;4.30;99.90
35127;DHT22;21300;52.006;5.798;2024-02-26T07:33:35;4.30;99.90
35127;DHT22;21300;52.006;5.798;2024-02-26T07:36:01;4.40;99.90
35127;DHT22;21300;52.006;5.798;2024-02-26T07:38:26;4.40;99.90
35127;DHT22;21300;52.006;5.798;2024-02-26T07:40:52;4.30;99.90
35127;DHT22;21300;52.006;5.798;2024-02-26T07:43:18;4.40;99.90
35127;DHT22;21300;52.006;5.798;2024-02-26T07:45:43;4.40;99.90
35127;DHT22;21300;52.006;5.798;2024-02-26T07:48:09;4.40;99.90
35127;DHT22;21300;52.006;5.798;2024-02-26T07:50:35;4.40;99.90
35127;DHT22;21300;52.006;5.798;2024-02-26T07:53:00;4.40;99.90
35127;DHT22;21300;52.006;5.798;2024-02-26T07:55:26;4.40;99.90
35127;DHT22;21300;52.006;5.798;2024-02-26T07:57:52;4.40;99.90
35127;DHT22;21300;52.006;5.798;2024-02-26T08:00:18;4.40;99.90
35127;DHT22;21300;52.006;5.798;2024-02-26T08:02:44;4.40;99.90
35127;DHT22;21300;52.006;5.798;2024-02-26T08:05:09;4.40;99.90
35127;DHT22;21300;52.006;5.798;2024-02-26T08:07:35;4.40;99.90
35127;DHT22;21300;52.006;5.798;2024-02-26T08:10:01;4.50;99.90
35127;DHT22;21300;52.006;5.798;2024-02-26T08:12:26;4.50;99.90
35127;DHT22;21300;52.006;5.798;2024-02-26T08:14:52;4.40;99.90
35127;DHT22;21300;52.006;5.798;2024-02-26T08:17:18;4.40;99.90
35127;DHT22;21300;52.006;5.798;2024-02-26T08:19:43;4.50;99.90
35127;DHT22;21300;52.006;5.798;2024-02-26T08:22:09;4.50;99.90
35127;DHT22;21300;52.006;5.798;2024-02-26T08:24:44;4.50;99.90
35127;DHT22;21300;52.006;5.798;2024-02-26T08:27:10;4.50;99.90
35127;DHT22;21300;52.006;5.798;2024-02-26T08:29:35;4.50;99.90
35127;DHT22;21300;52.006;5.798;2024-02-26T08:32:01;4.50;99.90
35127;DHT22;21300;52.006;5.798;2024-02-26T08:34:27;4.50;99.90
35127;DHT22;21300;52.006;5.798;2024-02-26T08:36:53;4.50;99.90
35127;DHT22;21300;52.006;5.798;2024-02-26T08:39:18;4.50;99.90
35127;DHT22;21300;52.006;5.798;2024-02-26T08:41:44;4.50;99.90
35127;DHT22;21300;52.006;5.798;2024-02-26T08:44:10;4.50;99.90
35127;DHT22;21300;52.006;5.798;2024-02-26T08:46:36;4.50;99.90
35127;DHT22;21300;52.006;5.798;2024-02-26T08:49:02;4.50;99.90
35127;DHT22;21300;52.006;5.798;2024-02-26T08:51:28;4.50;99.90
35127;DHT22;21300;52.006;5.798;2024-02-26T08:53:54;4.50;99.90
35127;DHT22;21300;52.006;5.798;2024-02-26T08:56:20;4.50;99.90
35127;DHT22;21300;52.006;5.798;2024-02-26T08:58:47;4.60;99.90
35127;DHT22;21300;52.006;5.798;2024-02-26T09:01:17;4.60;99.90
35127;DHT22;21300;52.006;5.798;2024-02-26T09:03:42;4.50;99.90
35127;DHT22;21300;52.006;5.798;2024-02-26T09:06:08;4.60;99.90
35127;DHT22;21300;52.006;5.798;2024-02-26T09:08:34;4.60;99.90
35127;DHT22;21300;52.006;5.798;2024-02-26T09:11:01;4.60;99.90
35127;DHT22;21300;52.006;5.798;2024-02-26T09:13:29;4.60;99.90
35127;DHT22;21300;52.006;5.798;2024-02-26T09:15:54;4.60;99.90
35127;DHT22;21300;52.006;5.798;2024-02-26T09:18:20;4.60;99.90
35127;DHT22;21300;52.006;5.798;2024-02-26T09:20:46;4.60;99.90
35127;DHT22;21300;52.006;5.798;2024-02-26T09:23:11;4.60;99.90
35127;DHT22;21300;52.006;5.798;2024-02-26T09:25:37;4.70;99.90
35127;DHT22;21300;52.006;5.798;2024-02-26T09:28:03;4.70;99.90
35127;DHT22;21300;52.006;5.798;2024-02-26T09:30:29;4.70;99.90
35127;DHT22;21300;52.006;5.798;2024-02-26T09:32:54;4.70;99.90
35127;DHT22;21300;52.006;5.798;2024-02-26T09:35:20;4.70;99.90
35127;DHT22;21300;52.006;5.798;2024-02-26T09:37:47;4.70;99.90
35127;DHT22;21300;52.006;5.798;2024-02-26T09:40:15;4.70;99.90
35127;DHT22;21300;52.006;5.798;2024-02-26T09:42:46;4.70;99.90
35127;DHT22;21300;52.006;5.798;2024-02-26T09:45:17;4.70;99.90
35127;DHT22;21300;52.006;5.798;2024-02-26T09:47:44;4.70;99.90
35127;DHT22;21300;52.006;5.798;2024-02-26T09:50:11;4.70;99.90
35127;DHT22;21300;52.006;5.798;2024-02-26T09:52:41;4.80;99.90
35127;DHT22;21300;52.006;5.798;2024-02-26T09:55:08;4.80;99.90
35127;DHT22;21300;52.006;5.798;2024-02-26T09:57:36;4.80;99.90
35127;DHT22;21300;52.006;5.798;2024-02-26T10:00:03;4.80;99.90
35127;DHT22;21300;52.006;5.798;2024-02-26T10:02:31;4.80;99.90
35127;DHT22;21300;52.006;5.798;2024-02-26T10:04:59;4.80;99.90
35127;DHT22;21300;52.006;5.798;2024-02-26T10:07:30;4.80;99.90
35127;DHT22;21300;52.006;5.798;2024-02-26T10:09:57;4.80;99.90
35127;DHT22;21300;52.006;5.798;2024-02-26T10:12:23;4.80;99.90
35127;DHT22;21300;52.006;5.798;2024-02-26T10:14:51;4.80;99.90
35127;DHT22;21300;52.006;5.798;2024-02-26T10:17:17;4.80;99.90
35127;DHT22;21300;52.006;5.798;2024-02-26T10:19:46;4.80;99.90
35127;DHT22;21300;52.006;5.798;2024-02-26T10:22:12;4.80;99.90
35127;DHT22;21300;52.006;5.798;2024-02-26T10:24:38;4.80;99.90
35127;DHT22;21300;52.006;5.798;2024-02-26T10:27:04;4.90;99.90
35127;DHT22;21300;52.006;5.798;2024-02-26T10:29:32;4.80;99.90
35127;DHT22;21300;52.006;5.798;2024-02-26T10:31:57;4.90;99.90
35127;DHT22;21300;52.006;5.798;2024-02-26T10:34:23;4.80;99.90
35127;DHT22;21300;52.006;5.798;2024-02-26T10:36:49;4.80;99.90
35127;DHT22;21300;52.006;5.798;2024-02-26T10:39:15;4.80;99.90
35127;DHT22;21300;52.006;5.798;2024-02-26T10:41:42;4.80;99.90
35127;DHT22;21300;52.006;5.798;2024-02-26T10:44:10;4.80;99.90
35127;DHT22;21300;52.006;5.798;2024-02-26T10:46:41;4.90;99.90
35127;DHT22;21300;52.006;5.798;2024-02-26T10:49:14;4.90;99.90
35127;DHT22;21300;52.006;5.798;2024-02-26T10:51:43;4.90;99.90
35127;DHT22;21300;52.006;5.798;2024-02-26T10:54:12;4.90;99.90
35127;DHT22;21300;52.006;5.798;2024-02-26T10:56:42;4.90;99.90
35127;DHT22;21300;52.006;5.798;2024-02-26T10:59:09;4.90;99.90
35127;DHT22;21300;52.006;5.798;2024-02-26T11:01:36;4.90;99.90
35127;DHT22;21300;52.006;5.798;2024-02-26T11:04:13;4.90;99.90
35127;DHT22;21300;52.006;5.798;2024-02-26T11:06:45;4.90;99.90
35127;DHT22;21300;52.006;5.798;2024-02-26T11:09:12;4.90;99.90
35127;DHT22;21300;52.006;5.798;2024-02-26T11:11:41;4.90;99.90
35127;DHT22;21300;52.006;5.798;2024-02-26T11:14:09;5.00;99.90
35127;DHT22;21300;52.006;5.798;2024-02-26T11:16:35;4.90;99.90
35127;DHT22;21300;52.006;5.798;2024-02-26T11:19:03;4.90;99.90
35127;DHT22;21300;52.006;5.798;2024-02-26T11:21:29;4.90;99.90
35127;DHT22;21300;52.006;5.798;2024-02-26T11:24:13;4.90;99.90
35127;DHT22;21300;52.006;5.798;2024-02-26T11:26:53;4.90;99.90
35127;DHT22;21300;52.006;5.798;2024-02-26T11:29:26;5.00;99.90
35127;DHT22;21300;52.006;5.798;2024-02-26T11:31:53;4.90;99.90
35127;DHT22;21300;52.006;5.798;2024-02-26T11:34:19;4.90;99.90
35127;DHT22;21300;52.006;5.798;2024-02-26T11:36:46;4.90;99.90
35127;DHT22;21300;52.006;5.798;2024-02-26T11:39:12;4.90;99.90
35127;DHT22;21300;52.006;5.798;2024-02-26T11:41:40;4.90;99.90
35127;DHT22;21300;52.006;5.798;2024-02-26T11:44:06;4.90;99.90
35127;DHT22;21300;52.006;5.798;2024-02-26T11:46:40;4.90;99.90
35127;DHT22;21300;52.006;5.798;2024-02-26T11:51:57;5.00;99.90
35127;DHT22;21300;52.006;5.798;2024-02-26T11:54:50;4.90;99.90
35127;DHT22;21300;52.006;5.798;2024-02-26T11:57:38;4.90;99.90
35127;DHT22;21300;52.006;5.798;2024-02-26T12:00:13;5.00;99.90
35127;DHT22;21300;52.006;5.798;2024-02-26T12:02:40;5.00;99.90
35127;DHT22;21300;52.006;5.798;2024-02-26T12:05:10;5.00;99.90
35127;DHT22;21300;52.006;5.798;2024-02-26T12:07:59;5.00;99.90
35127;DHT22;21300;52.006;5.798;2024-02-26T12:10:31;5.00;99.90
35127;DHT22;21300;52.006;5.798;2024-02-26T12:13:17;5.00;99.90
35127;DHT22;21300;52.006;5.798;2024-02-26T12:15:55;5.00;99.90
35127;DHT22;21300;52.006;5.798;2024-02-26T12:18:22;5.00;99.90
35127;DHT22;21300;52.006;5.798;2024-02-26T12:21:07;5.10;99.90
35127;DHT22;21300;52.006;5.798;2024-02-26T12:26:20;5.10;99.90
35127;DHT22;21300;52.006;5.798;2024-02-26T12:28:47;5.10;99.90
35127;DHT22;21300;52.006;5.798;2024-02-26T12:31:12;5.10;99.90
35127;DHT22;21300;52.006;5.798;2024-02-26T12:33:38;5.10;99.90
35127;DHT22;21300;52.006;5.798;2024-02-26T12:36:04;5.20;99.90
35127;DHT22;21300;52.006;5.798;2024-02-26T12:38:30;5.20;99.90
35127;DHT22;21300;52.006;5.798;2024-02-26T12:40:56;5.20;99.90
35127;DHT22;21300;52.006;5.798;2024-02-26T12:43:21;5.20;99.90
35127;DHT22;21300;52.006;5.798;2024-02-26T12:45:47;5.20;99.90
35127;DHT22;21300;52.006;5.798;2024-02-26T12:48:13;5.20;99.90
35127;DHT22;21300;52.006;5.798;2024-02-26T12:50:39;5.20;99.90
35127;DHT22;21300;52.006;5.798;2024-02-26T12:53:07;5.20;99.90
35127;DHT22;21300;52.006;5.798;2024-02-26T12:55:33;5.20;99.90
35127;DHT22;21300;52.006;5.798;2024-02-26T12:58:00;5.30;99.90
35127;DHT22;21300;52.006;5.798;2024-02-26T13:00:27;5.30;99.90
35127;DHT22;21300;52.006;5.798;2024-02-26T13:02:54;5.30;99.90
35127;DHT22;21300;52.006;5.798;2024-02-26T13:05:21;5.30;99.90
35127;DHT22;21300;52.006;5.798;2024-02-26T13:07:48;5.30;99.90
35127;DHT22;21300;52.006;5.798;2024-02-26T13:10:14;5.30;99.90
35127;DHT22;21300;52.006;5.798;2024-02-26T13:12:48;5.40;99.90
35127;DHT22;21300;52.006;5.798;2024-02-26T13:15:18;5.40;99.90
35127;DHT22;21300;52.006;5.798;2024-02-26T13:17:48;5.40;99.90
35127;DHT22;21300;52.006;5.798;2024-02-26T13:20:25;5.40;99.90
35127;DHT22;21300;52.006;5.798;2024-02-26T13:22:51;5.40;99.90
35127;DHT22;21300;52.006;5.798;2024-02-26T13:25:25;5.40;99.90
35127;DHT22;21300;52.006;5.798;2024-02-26T13:27:51;5.50;99.90
35127;DHT22;21300;52.006;5.798;2024-02-26T13:30:17;5.40;99.90
35127;DHT22;21300;52.006;5.798;2024-02-26T13:32:44;5.40;99.90
35127;DHT22;21300;52.006;5.798;2024-02-26T13:35:12;5.40;99.90
35127;DHT22;21300;52.006;5.798;2024-02-26T13:37:39;5.40;99.90
35127;DHT22;21300;52.006;5.798;2024-02-26T13:40:14;5.40;99.90
35127;DHT22;21300;52.006;5.798;2024-02-26T13:42:40;5.40;99.90
35127;DHT22;21300;52.006;5.798;2024-02-26T13:45:09;5.40;99.90
35127;DHT22;21300;52.006;5.798;2024-02-26T13:47:35;5.50;99.90
35127;DHT22;21300;52.006;5.798;2024-02-26T13:50:02;5.40;99.90
35127;DHT22;21300;52.006;5.798;2024-02-26T13:52:28;5.40;99.90
35127;DHT22;21300;52.006;5.798;2024-02-26T13:54:54;5.50;99.90
35127;DHT22;21300;52.006;5.798;2024-02-26T13:57:20;5.50;99.90
35127;DHT22;21300;52.006;5.798;2024-02-26T13:59:46;5.50;99.90
35127;DHT22;21300;52.006;5.798;2024-02-26T14:02:11;5.50;99.90
35127;DHT22;21300;52.006;5.798;2024-02-26T14:04:37;5.60;99.90
35127;DHT22;21300;52.006;5.798;2024-02-26T14:07:04;5.50;99.90
35127;DHT22;21300;52.006;5.798;2024-02-26T14:09:30;5.50;99.90
35127;DHT22;21300;52.006;5.798;2024-02-26T14:11:58;5.50;99.90
35127;DHT22;21300;52.006;5.798;2024-02-26T14:14:24;5.50;99.90
35127;DHT22;21300;52.006;5.798;2024-02-26T14:16:51;5.60;99.90
35127;DHT22;21300;52.006;5.798;2024-02-26T14:19:17;5.60;99.90
35127;DHT22;21300;52.006;5.798;2024-02-26T14:21:42;5.60;99.90
35127;DHT22;21300;52.006;5.798;2024-02-26T14:24:08;5.60;99.90
35127;DHT22;21300;52.006;5.798;2024-02-26T14:26:34;5.70;99.90
35127;DHT22;21300;52.006;5.798;2024-02-26T14:29:00;5.70;99.90
35127;DHT22;21300;52.006;5.798;2024-02-26T14:31:25;5.70;99.90
35127;DHT22;21300;52.006;5.798;2024-02-26T14:33:52;5.70;99.90
35127;DHT22;21300;52.006;5.798;2024-02-26T14:36:20;5.70;99.90
35127;DHT22;21300;52.006;5.798;2024-02-26T14:38:46;5.70;99.90
35127;DHT22;21300;52.006;5.798;2024-02-26T14:41:12;5.70;99.90
35127;DHT22;21300;52.006;5.798;2024-02-26T14:43:38;5.70;99.90
35127;DHT22;21300;52.006;5.798;2024-02-26T14:46:03;5.80;99.90
35127;DHT22;21300;52.006;5.798;2024-02-26T14:48:30;5.80;99.90
35127;DHT22;21300;52.006;5.798;2024-02-26T14:50:57;5.80;99.90
35127;DHT22;21300;52.006;5.798;2024-02-26T14:53:22;5.80;99.90
35127;DHT22;21300;52.006;5.798;2024-02-26T14:55:48;5.70;99.90
35127;DHT22;21300;52.006;5.798;2024-02-26T14:58:14;5.70;99.90
35127;DHT22;21300;52.006;5.798;2024-02-26T15:00:39;5.70;99.90
35127;DHT22;21300;52.006;5.798;2024-02-26T15:03:05;5.70;99.90
35127;DHT22;21300;52.006;5.798;2024-02-26T15:05:32;5.70;99.90
35127;DHT22;21300;52.006;5.798;2024-02-26T15:07:58;5.70;99.90
35127;DHT22;21300;52.006;5.798;2024-02-26T15:10:25;5.70;99.90
35127;DHT22;21300;52.006;5.798;2024-02-26T15:12:51;5.70;99.90
35127;DHT22;21300;52.006;5.798;2024-02-26T15:15:23;5.60;99.90
35127;DHT22;21300;52.006;5.798;2024-02-26T15:17:49;5.60;99.90
35127;DHT22;21300;52.006;5.798;2024-02-26T15:20:15;5.60;99.90
35127;DHT22;21300;52.006;5.798;2024-02-26T15:22:41;5.60;99.90
35127;DHT22;21300;52.006;5.798;2024-02-26T15:25:10;5.50;99.90
35127;DHT22;21300;52.006;5.798;2024-02-26T15:27:36;5.60;99.90
35127;DHT22;21300;52.006;5.798;2024-02-26T15:30:02;5.50;99.90
35127;DHT22;21300;52.006;5.798;2024-02-26T15:32:28;5.50;99.90
35127;DHT22;21300;52.006;5.798;2024-02-26T15:34:54;5.50;99.90
35127;DHT22;21300;52.006;5.798;2024-02-26T15:37:20;5.50;99.90
35127;DHT22;21300;52.006;5.798;2024-02-26T15:39:46;5.50;99.90
35127;DHT22;21300;52.006;5.798;2024-02-26T15:42:12;5.50;99.90
35127;DHT22;21300;52.006;5.798;2024-02-26T15:44:38;5.50;99.90
35127;DHT22;21300;52.006;5.798;2024-02-26T15:47:05;5.40;99.90